Szolnok, Hungary
Current Conditions -  °F | °C
As of 3:45 AM on Tuesday 25 Nov 2014 (Local Time) from LHSN Reporting Station
Haze Haze  
Wind Chill: 30°   Ceiling: 8000
Heat Index: 34°   Visibility: 0.93mi
Dew Point: 32°   Wind: 5mph
Humidity: 93%   Direction: 100°E
Pressure: 30.39"   Gusts: NA
Location:  47.18°N, 20.18°E
Report Text: LHSN 250145Z 10004KT 1500 BR BKN080 OVC083 01/00 Q1029 NOSIG RMK AMB
Loading
Personal Weather Stations






























Interactive Weather Map New forecast layout! Learn more

10-Day Weather Forecast

Advertisements
Track Severe Weather on mobile